• Join FlightAware (Why Join?)
  • Login
  • US Flag 
04:38PM EDT


 

Airport Tracker/Info


-or-


 

Live Flight TrackerFlight Track Log ✈ JUS327 ✈ 02-May-2013 ✈ KSHV - MMIO / SLW

Flight Track Log - Related Links

Times and Time Zones

All times are in EDT time to prevent confusion due to time zone crossing. See the JUS327 flight status page for this flight to view local times or setup timezone preferences in your user account.

Time Position Orientation Groundspeed Altitude Reporting Facility
EDT Latitude Longitude Course Direction KTS MPH feet Rate Location/Type
08:14PM 32.4769 -93.8822 305° West 197 227 3,000  Level Fort Worth Center
08:16PM 32.3775 -93.9794 220° Southwest 304 350 7,700 2,520 Climbing Fort Worth Center
08:17PM 32.3125 -94.0458 221° Southwest 291 335 10,300 2,400 Climbing Fort Worth Center
08:18PM 32.2514 -94.1069 220° Southwest 310 357 12,600 2,700 Climbing Fort Worth Center
08:19PM 32.1761 -94.1858 222° Southwest 321 369 15,800 2,820 Climbing Fort Worth Center
08:20PM 32.1131 -94.2494 221° Southwest 332 382 18,300 2,280 Climbing Fort Worth Center
08:21PM 32.0419 -94.3231 221° Southwest 337 388 20,400 2,340 Climbing Fort Worth Center
08:22PM 31.9686 -94.3989 221° Southwest 347 399 23,000 1,800 Climbing Fort Worth Center
08:23PM 31.8911 -94.4822 222° Southwest 360 414 24,100 1,140 Climbing Fort Worth Center
08:24PM 31.8033 -94.5681 220° Southwest 391 450 25,300 1,500 Climbing Fort Worth Center
08:26PM 31.6311 -94.7433 221° Southwest 426 490 28,500 1,680 Climbing Houston Center
08:27PM 31.5408 -94.8314 220° Southwest 424 488 30,300 1,560 Climbing Houston Center
08:28PM 31.4542 -94.9200 221° Southwest 416 479 31,800 1,620 Climbing Houston Center
08:29PM 31.3503 -95.0233 220° Southwest 412 474 33,700 1,020 Climbing Houston Center
08:30PM 31.2636 -95.1089 220° Southwest 412 474 34,000 120 Climbing Houston Center
08:31PM 31.1753 -95.1939 219° Southwest 412 474 34,000  Level Houston Center
08:32PM 31.0886 -95.2786 220° Southwest 409 471 34,000  Level Houston Center
08:33PM 31.0006 -95.3650 220° Southwest 412 474 34,000  Level Houston Center
08:34PM 30.8956 -95.4681 220° Southwest 412 474 34,000  Level Houston Center
08:35PM 30.8086 -95.5547 221° Southwest 410 472 34,000  Level Houston Center
08:36PM 30.7211 -95.6419 221° Southwest 414 476 34,000  Level Houston Center
08:37PM 30.6422 -95.7183 220° Southwest 411 473 34,000  Level Houston Center
08:38PM 30.5389 -95.8189 220° Southwest 407 468 34,000  Level Houston Center
08:39PM 30.4528 -95.9042 220° Southwest 407 468 34,000  Level Houston Center
08:40PM 30.3661 -95.9894 220° Southwest 410 472 34,000  Level Houston Center
08:41PM 30.2653 -96.0833 219° Southwest 412 474 34,000  Level Houston Center
08:42PM 30.1822 -96.1750 224° Southwest 411 473 34,000 -60 Level Houston Center
08:43PM 30.1075 -96.2769 230° Southwest 405 466 33,900 -60 Descending Houston Center
08:44PM 30.0358 -96.3783 231° Southwest 406 467 33,900  Level Houston Center
08:45PM 29.9589 -96.4728 227° Southwest 405 466 33,900  Level Houston Center
08:46PM 29.8794 -96.5661 226° Southwest 407 468 33,900  Level Houston Center
08:47PM 29.8025 -96.6619 227° Southwest 407 468 33,900  Level Houston Center
08:48PM 29.7111 -96.7775 228° Southwest 408 470 33,900  Level Houston Center
08:49PM 29.6375 -96.8747 229° Southwest 406 467 33,900  Level Houston Center
08:51PM 29.5658 -96.9744 230° Southwest 409 471 33,900  Level Houston Center
08:52PM 29.4928 -97.0733 230° Southwest 412 474 33,900  Level Houston Center
08:53PM 29.3983 -97.1853 226° Southwest 413 475 33,900  Level Houston Center
08:54PM 29.3194 -97.2817 227° Southwest 416 479 33,900  Level Houston Center
08:55PM 29.2425 -97.3781 228° Southwest 413 475 33,900  Level Houston Center
08:56PM 29.1653 -97.4753 228° Southwest 414 476 33,900  Level Houston Center
08:57PM 29.0872 -97.5708 227° Southwest 412 474 33,900  Level Houston Center
08:58PM 29.0092 -97.6681 227° Southwest 414 476 33,900  Level Houston Center
08:59PM 28.9314 -97.7647 227° Southwest 416 479 33,900  Level Houston Center
09:00PM 28.8372 -97.8808 227° Southwest 415 478 33,900  Level Houston Center
09:01PM 28.7594 -97.9778 228° Southwest 415 478 33,900  Level Houston Center
09:02PM 28.6806 -98.0739 227° Southwest 416 479 33,900  Level Houston Center
09:03PM 28.6011 -98.1692 226° Southwest 416 479 33,900  Level Houston Center
09:04PM 28.5233 -98.2664 228° Southwest 416 479 33,900  Level Houston Center
09:05PM 28.4400 -98.3683 227° Southwest 416 479 34,000  Climbing Houston Center
09:06PM 28.3597 -98.4639 226° Southwest 417 480 33,900 -60 Descending Houston Center
09:07PM 28.2819 -98.5600 227° Southwest 416 479 33,900  Level Houston Center
09:08PM 28.2028 -98.6561 227° Southwest 417 480 34,000  Climbing Houston Center
09:09PM 28.1078 -98.7711 227° Southwest 418 481 33,900 -60 Descending Houston Center
09:10PM 28.0286 -98.8675 227° Southwest 420 483 33,900  Level Houston Center
09:11PM 27.9483 -98.9639 227° Southwest 424 488 33,900  Level Houston Center
09:12PM 27.8678 -99.0594 226° Southwest 423 487 33,900  Level Houston Center
09:13PM 27.7892 -99.1561 227° Southwest 423 487 33,900  Level Houston Center
09:14PM 27.7089 -99.2522 227° Southwest 425 489 33,900  Level Houston Center
09:15PM 27.6119 -99.3658 226° Southwest 423 487 33,900  Level Houston Center
09:16PM 27.5317 -99.4611 226° Southwest 424 488 33,900  Level Houston Center
09:18PM 27.4272 -99.5351 249° West  Level FlightAware Approximate
09:25PM 26.8389 -99.9853 211° Southwest  Level FlightAware Approximate
09:26PM 26.7513 -100.0451 214° Southwest  Level FlightAware Approximate
09:27PM 26.6664 -100.1096 214° Southwest  Level FlightAware Approximate
09:28PM 26.5815 -100.1741 214° Southwest  Level FlightAware Approximate
09:29PM 26.4966 -100.2385 214° Southwest  Level FlightAware Approximate
09:30PM 26.4116 -100.3029 214° Southwest  Level FlightAware Approximate
09:31PM 26.3267 -100.3671 214° Southwest  Level FlightAware Approximate
09:32PM 26.2416 -100.4312 214° Southwest  Level FlightAware Approximate
09:33PM 26.1545 -100.4915 211° Southwest  Level FlightAware Approximate
09:34PM 26.0664 -100.5502 210° Southwest  Level FlightAware Approximate
09:35PM 25.9774 -100.6069 210° Southwest  Level FlightAware Approximate
09:36PM 25.8883 -100.6635 210° Southwest  Level FlightAware Approximate
09:37PM 25.8030 -100.7270 214° Southwest  Level FlightAware Approximate
09:38PM 25.7179 -100.7907 214° Southwest  Level FlightAware Approximate
09:39PM 25.6301 -100.8441 214° Southwest  Level FlightAware Approximate
09:40PM 25.5450 -100.9079 214° Southwest  Level FlightAware Approximate
09:41PM 25.5333 -100.9167 North  Level FlightAware Approximate
09:42PM 25.5495 -100.9287 North  Level Estimated
09:43PM 25.5495 -100.9287 North  Level Estimated
09:44PM 25.5495 -100.9287 North  Level Estimated
09:45PM 25.5495 -100.9287 North  Level Estimated
09:46PM 25.5495 -100.9287 North  Level Estimated
09:47PM 25.5495 -100.9287 North  Level Estimated
09:48PM 25.5495 -100.9287 North  Level Estimated
09:49PM 25.5495 -100.9287 North  Level Estimated
09:50PM 25.5495 -100.9287 North  Level Estimated
09:51PM 25.5495 -100.9287 North  Level Estimated
09:52PM 25.5495 -100.9287 North  Level Estimated
09:53PM 25.5495 -100.9287 North  Level Estimated
09:54PM 25.5495 -100.9287 North  Level Estimated
09:55PM 25.5495 -100.9287 North  Level Estimated
09:56PM 25.5495 -100.9287 North  Level Estimated
09:57PM 25.5495 -100.9287 North  Level Estimated
09:58PM 25.5495 -100.9287 North  Level Estimated
09:59PM 25.5495 -100.9287 North  Level Estimated
10:00PM 25.5495 -100.9287 North  Level Estimated